createdAt,value
2019-01-16T00:00:25.725Z,7.30
2019-01-16T00:01:52.457Z,7.30
2019-01-16T00:03:21.028Z,7.20
2019-01-16T00:04:45.111Z,7.30
2019-01-16T00:06:08.677Z,7.30
2019-01-16T00:07:35.478Z,7.30
2019-01-16T00:08:58.224Z,7.30
2019-01-16T00:10:17.715Z,7.30
2019-01-16T00:11:33.986Z,7.30
2019-01-16T00:12:58.009Z,7.30
2019-01-16T00:14:28.075Z,7.30
2019-01-16T00:15:43.984Z,7.30
2019-01-16T00:17:08.102Z,7.30
2019-01-16T00:18:28.954Z,7.30
2019-01-16T00:19:45.555Z,7.30
2019-01-16T00:21:01.335Z,7.30
2019-01-16T00:22:25.693Z,7.30
2019-01-16T00:23:50.076Z,7.30
2019-01-16T00:25:14.323Z,7.30
2019-01-16T00:26:44.745Z,7.30
2019-01-16T00:28:12.515Z,7.30
2019-01-16T00:29:29.316Z,7.40
2019-01-16T00:31:06.747Z,7.30
2019-01-16T00:32:41.156Z,7.30
2019-01-16T00:34:17.890Z,7.30
2019-01-16T00:35:40.918Z,7.40
2019-01-16T00:37:01.304Z,7.30
2019-01-16T00:38:23.506Z,7.30
2019-01-16T00:39:59.965Z,7.40
2019-01-16T00:41:35.258Z,7.30
2019-01-16T00:43:02.751Z,7.30
2019-01-16T00:44:36.411Z,7.30
2019-01-16T00:45:59.471Z,7.30
2019-01-16T00:47:19.927Z,7.30
2019-01-16T00:48:41.823Z,7.40
2019-01-16T00:49:57.849Z,7.40
2019-01-16T00:51:24.318Z,7.40
2019-01-16T00:52:54.568Z,7.30
2019-01-16T00:54:18.763Z,7.40
2019-01-16T00:55:46.008Z,7.30
2019-01-16T00:57:06.390Z,7.30
2019-01-16T00:58:33.411Z,7.40
2019-01-16T01:00:06.457Z,7.40
2019-01-16T01:01:30.436Z,7.40
2019-01-16T01:03:06.258Z,7.40
2019-01-16T01:04:29.503Z,7.40
2019-01-16T01:05:41.619Z,7.30
2019-01-16T01:07:04.395Z,7.40
2019-01-16T01:08:27.544Z,7.40
2019-01-16T01:10:04.951Z,7.30
2019-01-16T01:11:29.239Z,7.30
2019-01-16T01:12:50.333Z,7.40
2019-01-16T01:14:25.461Z,7.30
2019-01-16T01:15:52.831Z,7.30
2019-01-16T01:17:08.991Z,7.40
2019-01-16T01:18:40.900Z,7.40
2019-01-16T01:20:05.230Z,7.40
2019-01-16T01:21:33.920Z,7.30
2019-01-16T01:22:59.243Z,7.40
2019-01-16T01:24:26.328Z,7.30
2019-01-16T01:25:56.708Z,7.40
2019-01-16T01:27:19.719Z,7.40
2019-01-16T01:28:41.072Z,7.40
2019-01-16T01:29:58.761Z,7.40
2019-01-16T01:31:21.821Z,7.30
2019-01-16T01:32:49.345Z,7.30
2019-01-16T01:34:25.825Z,7.40
2019-01-16T01:35:50.126Z,7.40
2019-01-16T01:37:14.436Z,7.40
2019-01-16T01:38:53.837Z,7.40
2019-01-16T01:40:10.268Z,7.40
2019-01-16T01:41:34.574Z,7.40
2019-01-16T01:43:04.655Z,7.40
2019-01-16T01:44:18.832Z,7.40
2019-01-16T01:45:49.326Z,7.40
2019-01-16T01:47:12.542Z,7.40
2019-01-16T01:48:31.741Z,7.40
2019-01-16T01:49:55.870Z,7.40
2019-01-16T01:51:23.181Z,7.40
2019-01-16T01:52:50.157Z,7.40
2019-01-16T01:54:14.579Z,7.50
2019-01-16T01:55:38.933Z,7.50
2019-01-16T01:56:55.766Z,7.50
2019-01-16T01:58:19.619Z,7.40
2019-01-16T01:59:37.519Z,7.50
2019-01-16T02:01:10.743Z,7.40
2019-01-16T02:02:40.907Z,7.40
2019-01-16T02:04:03.941Z,7.50
2019-01-16T02:05:41.977Z,7.50
2019-01-16T02:07:24.510Z,7.40
2019-01-16T02:08:47.707Z,7.40
2019-01-16T02:10:14.817Z,7.40
2019-01-16T02:11:37.784Z,7.40
2019-01-16T02:12:56.667Z,7.40
2019-01-16T02:14:27.265Z,7.40
2019-01-16T02:15:50.067Z,7.40
2019-01-16T02:17:17.152Z,7.40
2019-01-16T02:18:30.624Z,7.30
2019-01-16T02:19:54.868Z,7.30
2019-01-16T02:21:14.927Z,7.30
2019-01-16T02:22:38.155Z,7.30
2019-01-16T02:24:08.182Z,7.20
2019-01-16T02:25:27.361Z,7.20
2019-01-16T02:26:51.677Z,7.20
2019-01-16T02:28:18.670Z,7.20
2019-01-16T02:29:48.922Z,7.20
2019-01-16T02:31:15.918Z,7.20
2019-01-16T02:32:38.645Z,7.20
2019-01-16T02:34:05.928Z,7.20
2019-01-16T02:35:31.796Z,7.20
2019-01-16T02:36:58.789Z,7.20
2019-01-16T02:38:23.511Z,7.20
2019-01-16T02:39:45.632Z,7.30
2019-01-16T02:41:02.666Z,7.20
2019-01-16T02:42:31.738Z,7.20
2019-01-16T02:43:54.691Z,7.30
2019-01-16T02:46:54.306Z,7.30
2019-01-16T02:48:17.256Z,7.20
2019-01-16T02:49:44.142Z,7.30
2019-01-16T02:51:00.946Z,7.30
2019-01-16T02:52:27.939Z,7.30
2019-01-16T02:53:50.631Z,7.30
2019-01-16T02:55:14.822Z,7.30
2019-01-16T02:56:28.991Z,7.30
2019-01-16T02:57:43.364Z,7.30
2019-01-16T02:59:22.784Z,7.30
2019-01-16T03:00:47.018Z,7.30
2019-01-16T03:02:08.563Z,7.30
2019-01-16T03:03:32.966Z,7.30
2019-01-16T03:05:12.315Z,7.30
2019-01-16T03:06:54.589Z,7.30
2019-01-16T03:08:10.849Z,7.40
2019-01-16T03:09:33.795Z,7.30
2019-01-16T03:10:57.954Z,7.30
2019-01-16T03:12:26.460Z,7.40
2019-01-16T03:13:53.843Z,7.30
2019-01-16T03:15:17.585Z,7.40
2019-01-16T03:16:41.788Z,7.40
2019-01-16T03:18:04.653Z,7.40
2019-01-16T03:19:27.493Z,7.40
2019-01-16T03:20:57.791Z,7.30
2019-01-16T03:22:25.456Z,7.40
2019-01-16T03:24:04.755Z,7.40
2019-01-16T03:25:47.173Z,7.40
2019-01-16T03:27:11.376Z,7.40
2019-01-16T03:28:41.399Z,7.40
2019-01-16T03:30:11.530Z,7.40
2019-01-16T03:31:38.314Z,7.40
2019-01-16T03:33:02.517Z,7.40
2019-01-16T03:34:25.536Z,7.40
2019-01-16T03:35:42.564Z,7.40
2019-01-16T03:37:09.792Z,7.40
2019-01-16T03:38:36.749Z,7.40
2019-01-16T03:39:59.731Z,7.40
2019-01-16T03:41:13.845Z,7.40
2019-01-16T03:42:32.810Z,7.40
2019-01-16T03:44:05.958Z,7.40
2019-01-16T03:45:23.769Z,7.40
2019-01-16T03:46:56.996Z,7.40
2019-01-16T03:48:12.318Z,7.40
2019-01-16T03:49:31.926Z,7.40
2019-01-16T03:50:55.266Z,7.40
2019-01-16T03:52:14.999Z,7.40
2019-01-16T03:53:45.292Z,7.40
2019-01-16T03:55:09.484Z,7.40
2019-01-16T03:56:36.364Z,7.40
2019-01-16T03:57:56.020Z,7.40
2019-01-16T03:59:35.556Z,7.40
2019-01-16T04:00:58.714Z,7.40
2019-01-16T04:02:22.901Z,7.40
2019-01-16T04:03:46.204Z,7.40
2019-01-16T04:05:09.077Z,7.40
2019-01-16T04:06:29.846Z,7.40
2019-01-16T04:07:59.953Z,7.40
2019-01-16T04:09:39.456Z,7.40
2019-01-16T04:11:01.909Z,7.40
2019-01-16T04:12:22.730Z,7.40
2019-01-16T04:13:46.790Z,7.40
2019-01-16T04:15:19.979Z,7.40
2019-01-16T04:16:50.146Z,7.40
2019-01-16T04:18:12.959Z,7.40
2019-01-16T04:19:44.669Z,7.40
2019-01-16T04:20:58.208Z,7.40
2019-01-16T04:22:25.525Z,7.40
2019-01-16T04:23:55.815Z,7.40
2019-01-16T04:25:18.807Z,7.40
2019-01-16T04:26:41.743Z,7.40
2019-01-16T04:28:05.927Z,7.30
2019-01-16T04:29:28.947Z,7.30
2019-01-16T04:30:53.234Z,7.30
2019-01-16T04:32:16.301Z,7.30
2019-01-16T04:33:39.252Z,7.30
2019-01-16T04:35:06.421Z,7.40
2019-01-16T04:36:29.462Z,7.30
2019-01-16T04:37:45.088Z,7.40
2019-01-16T04:39:27.390Z,7.40
2019-01-16T04:40:51.594Z,7.40
2019-01-16T04:42:18.755Z,7.40
2019-01-16T04:43:48.852Z,7.40
2019-01-16T04:45:03.900Z,7.40
2019-01-16T04:46:26.928Z,7.40
2019-01-16T04:47:52.023Z,7.40
2019-01-16T04:49:15.072Z,7.40
2019-01-16T04:50:38.208Z,7.40
2019-01-16T04:52:01.284Z,7.40
2019-01-16T04:53:21.652Z,7.30
2019-01-16T04:54:49.056Z,7.30
2019-01-16T04:56:11.331Z,7.30
2019-01-16T04:57:37.953Z,7.40
2019-01-16T04:59:01.743Z,7.40
2019-01-16T05:00:28.580Z,7.30
2019-01-16T05:01:58.649Z,7.40
2019-01-16T05:03:28.719Z,7.30
2019-01-16T05:04:49.284Z,7.30
2019-01-16T05:06:19.519Z,7.30
2019-01-16T05:07:43.711Z,7.30
2019-01-16T05:09:02.619Z,7.30
2019-01-16T05:10:27.619Z,7.30
2019-01-16T05:12:00.808Z,7.30
2019-01-16T05:13:40.360Z,7.30
2019-01-16T05:15:04.478Z,7.20
2019-01-16T05:16:43.955Z,7.30
2019-01-16T05:18:11.077Z,7.20
2019-01-16T05:19:44.141Z,7.20
2019-01-16T05:20:59.506Z,7.20
2019-01-16T05:22:22.322Z,7.20
2019-01-16T05:23:49.537Z,7.10
2019-01-16T05:25:23.232Z,7.10
2019-01-16T05:26:40.802Z,7.10
2019-01-16T05:28:23.429Z,7.10
2019-01-16T05:29:46.201Z,7.10
2019-01-16T05:31:14.844Z,7.00
2019-01-16T05:32:45.137Z,7.00
2019-01-16T05:34:06.863Z,7.00
2019-01-16T05:35:25.613Z,7.00
2019-01-16T05:36:41.742Z,6.90
2019-01-16T05:37:55.232Z,6.90
2019-01-16T05:39:19.502Z,6.90
2019-01-16T05:40:37.838Z,6.90
2019-01-16T05:42:04.798Z,6.90
2019-01-16T05:43:32.102Z,6.90
2019-01-16T05:44:55.139Z,6.90
2019-01-16T05:46:34.385Z,6.90
2019-01-16T05:47:50.611Z,6.90
2019-01-16T05:49:17.582Z,6.90
2019-01-16T05:50:51.549Z,6.90
2019-01-16T05:52:18.960Z,6.90
2019-01-16T05:53:48.988Z,6.90
2019-01-16T05:55:31.247Z,6.90
2019-01-16T05:56:58.406Z,6.90
2019-01-16T05:58:25.924Z,6.90
2019-01-16T05:59:48.395Z,6.90
2019-01-16T06:01:11.082Z,6.90
2019-01-16T06:02:49.122Z,6.80
2019-01-16T06:04:13.282Z,6.90
2019-01-16T06:05:32.967Z,6.90
2019-01-16T06:06:57.966Z,6.90
2019-01-16T06:08:20.994Z,6.80
2019-01-16T06:09:45.238Z,6.80
2019-01-16T06:11:08.047Z,6.80
2019-01-16T06:12:41.375Z,6.80
2019-01-16T06:14:08.539Z,6.80
2019-01-16T06:15:32.734Z,6.80
2019-01-16T06:16:51.467Z,6.80
2019-01-16T06:18:05.174Z,6.70
2019-01-16T06:19:44.558Z,6.70
2019-01-16T06:21:11.620Z,6.70
2019-01-16T06:22:30.488Z,6.70
2019-01-16T06:23:54.867Z,6.70
2019-01-16T06:25:12.280Z,6.70
2019-01-16T06:26:42.662Z,6.70
2019-01-16T06:28:02.525Z,6.70
2019-01-16T06:29:25.628Z,6.70
2019-01-16T06:30:56.107Z,6.70
2019-01-16T06:32:29.593Z,6.70
2019-01-16T06:33:57.903Z,6.70
2019-01-16T06:35:14.735Z,6.70
2019-01-16T06:36:37.513Z,6.70
2019-01-16T06:38:19.743Z,6.70
2019-01-16T06:39:56.021Z,6.70
2019-01-16T06:41:23.189Z,6.70
2019-01-16T06:42:40.460Z,6.70
2019-01-16T06:44:16.932Z,6.70
2019-01-16T06:45:39.522Z,6.70
2019-01-16T06:47:02.323Z,6.70
2019-01-16T06:48:45.005Z,6.70
2019-01-16T06:50:07.506Z,6.80
2019-01-16T06:51:19.467Z,6.70
2019-01-16T06:52:39.526Z,6.80
2019-01-16T06:54:02.478Z,6.80
2019-01-16T06:55:18.302Z,6.80
2019-01-16T06:56:55.508Z,6.80
2019-01-16T06:58:18.420Z,6.80
2019-01-16T06:59:51.925Z,6.80
2019-01-16T07:01:04.774Z,6.80
2019-01-16T07:02:24.208Z,6.80
2019-01-16T07:03:40.104Z,6.80
2019-01-16T07:05:16.362Z,6.90
2019-01-16T07:06:38.262Z,6.80
2019-01-16T07:08:17.548Z,6.80
2019-01-16T07:09:50.824Z,6.80
2019-01-16T07:11:13.680Z,6.90
2019-01-16T07:12:29.090Z,6.80
2019-01-16T07:13:45.383Z,6.80
2019-01-16T07:15:15.452Z,6.80
2019-01-16T07:16:45.930Z,6.80
2019-01-16T07:18:09.026Z,6.80
2019-01-16T07:19:31.832Z,6.80
2019-01-16T07:20:53.312Z,6.80
2019-01-16T07:22:32.584Z,6.80
2019-01-16T07:23:50.361Z,6.80
2019-01-16T07:25:08.720Z,6.80
2019-01-16T07:26:42.393Z,6.90
2019-01-16T07:28:10.164Z,6.80
2019-01-16T07:29:34.374Z,6.80
2019-01-16T07:30:57.363Z,6.90
2019-01-16T07:32:33.487Z,6.90
2019-01-16T07:33:51.320Z,6.90
2019-01-16T07:35:15.489Z,6.80
2019-01-16T07:36:38.392Z,6.90
2019-01-16T07:37:58.211Z,6.90
2019-01-16T07:39:15.340Z,6.80
2019-01-16T07:40:51.799Z,6.90
2019-01-16T07:42:15.996Z,6.90
2019-01-16T07:43:40.216Z,6.90
2019-01-16T07:45:10.549Z,6.90
2019-01-16T07:46:41.118Z,6.90
2019-01-16T07:48:11.114Z,6.90
2019-01-16T07:49:35.239Z,6.90
2019-01-16T07:50:58.026Z,6.90
2019-01-16T07:52:25.148Z,6.90
2019-01-16T07:53:41.228Z,6.80
2019-01-16T07:55:05.436Z,6.90
2019-01-16T07:56:28.638Z,6.90
2019-01-16T07:57:58.718Z,6.90
2019-01-16T07:59:21.796Z,6.90
2019-01-16T08:00:38.926Z,6.90
2019-01-16T08:02:12.120Z,6.90
2019-01-16T08:03:39.191Z,6.80
2019-01-16T08:05:03.440Z,6.80
2019-01-16T08:06:36.749Z,6.90
2019-01-16T08:07:59.743Z,6.80
2019-01-16T08:09:33.481Z,6.80
2019-01-16T08:10:53.103Z,6.80
2019-01-16T08:12:24.256Z,6.80
2019-01-16T08:13:57.280Z,6.80
2019-01-16T08:15:20.225Z,6.80
2019-01-16T08:16:56.845Z,6.80
2019-01-16T08:18:30.072Z,6.80
2019-01-16T08:20:06.634Z,6.80
2019-01-16T08:21:33.783Z,6.80
2019-01-16T08:23:14.278Z,6.80
2019-01-16T08:24:41.632Z,6.80
2019-01-16T08:26:04.441Z,6.80
2019-01-16T08:27:27.814Z,6.80
2019-01-16T08:28:52.019Z,6.90
2019-01-16T08:30:10.861Z,6.80
2019-01-16T08:31:44.211Z,6.80
2019-01-16T08:33:08.432Z,6.80
2019-01-16T08:34:31.498Z,6.80
2019-01-16T08:35:51.744Z,6.80
2019-01-16T08:37:11.501Z,6.70
2019-01-16T08:38:32.594Z,6.80
2019-01-16T08:39:56.703Z,6.70
2019-01-16T08:41:24.269Z,6.80
2019-01-16T08:42:47.111Z,6.70
2019-01-16T08:44:26.641Z,6.80
2019-01-16T08:45:49.428Z,6.80
2019-01-16T08:47:28.815Z,6.80
2019-01-16T08:48:51.937Z,6.80
2019-01-16T08:50:23.021Z,6.80
2019-01-16T08:51:37.500Z,6.80
2019-01-16T08:53:00.864Z,6.80
2019-01-16T08:54:20.223Z,6.80
2019-01-16T08:55:35.852Z,6.80
2019-01-16T08:56:59.216Z,6.80
2019-01-16T08:58:32.902Z,6.80
2019-01-16T08:59:59.960Z,6.80
2019-01-16T09:01:23.419Z,6.80
2019-01-16T09:02:51.096Z,6.80
2019-01-16T09:04:33.796Z,6.80
2019-01-16T09:05:56.605Z,6.80
2019-01-16T09:07:19.630Z,6.80
2019-01-16T09:08:36.888Z,6.80
2019-01-16T09:09:59.978Z,6.80
2019-01-16T09:11:23.051Z,6.90
2019-01-16T09:12:46.149Z,6.90
2019-01-16T09:14:28.730Z,6.80
2019-01-16T09:15:51.620Z,6.90
2019-01-16T09:17:27.872Z,6.90
2019-01-16T09:18:56.962Z,6.90
2019-01-16T09:20:15.883Z,6.90
2019-01-16T09:21:41.311Z,6.90
2019-01-16T09:23:04.507Z,6.90
2019-01-16T09:24:40.731Z,6.80
2019-01-16T09:26:11.065Z,6.80
2019-01-16T09:27:47.602Z,6.90
2019-01-16T09:29:06.803Z,6.90
2019-01-16T09:30:30.798Z,6.80
2019-01-16T09:31:49.011Z,6.90
2019-01-16T09:33:25.221Z,6.90
2019-01-16T09:34:54.998Z,6.90
2019-01-16T09:36:11.445Z,6.90
2019-01-16T09:37:38.656Z,6.90
2019-01-16T09:39:01.435Z,6.90
2019-01-16T09:40:38.726Z,6.90
2019-01-16T09:41:57.668Z,6.90
2019-01-16T09:43:22.034Z,6.90
2019-01-16T09:44:52.185Z,7.00
2019-01-16T09:46:22.182Z,7.00
2019-01-16T09:47:45.513Z,7.00
2019-01-16T09:49:07.480Z,7.00
2019-01-16T09:50:27.809Z,7.00
2019-01-16T09:51:55.193Z,7.00
2019-01-16T09:53:19.362Z,7.10
2019-01-16T09:54:42.188Z,7.00
2019-01-16T09:56:15.978Z,7.10
2019-01-16T09:57:52.341Z,7.00
2019-01-16T09:59:16.664Z,7.10
2019-01-16T10:00:40.178Z,7.00
2019-01-16T10:02:10.800Z,7.10
2019-01-16T10:03:41.299Z,7.10
2019-01-16T10:05:03.582Z,7.10
2019-01-16T10:06:36.350Z,7.10
2019-01-16T10:08:12.660Z,7.10
2019-01-16T10:09:35.661Z,7.10
2019-01-16T10:11:08.756Z,7.20
2019-01-16T10:12:31.777Z,7.10
2019-01-16T10:13:54.716Z,7.20
2019-01-16T10:15:25.027Z,7.20
2019-01-16T10:16:47.765Z,7.20
2019-01-16T10:18:24.010Z,7.10
2019-01-16T10:19:47.164Z,7.10
2019-01-16T10:21:08.476Z,7.10
2019-01-16T10:22:31.519Z,7.10
2019-01-16T10:23:48.839Z,7.10
2019-01-16T10:25:10.739Z,7.20
2019-01-16T10:26:35.686Z,7.20
2019-01-16T10:28:03.695Z,7.20
2019-01-16T10:29:36.907Z,7.20
2019-01-16T10:30:59.791Z,7.20
2019-01-16T10:32:23.042Z,7.20
2019-01-16T10:33:47.222Z,7.20
2019-01-16T10:35:19.118Z,7.20
2019-01-16T10:36:46.088Z,7.20
2019-01-16T10:38:03.261Z,7.10
2019-01-16T10:39:33.974Z,7.10
2019-01-16T10:40:53.155Z,7.10
2019-01-16T10:42:09.808Z,7.10
2019-01-16T10:43:31.425Z,7.10
2019-01-16T10:44:54.203Z,7.10
2019-01-16T10:46:30.563Z,7.10
2019-01-16T10:47:54.860Z,7.20
2019-01-16T10:49:14.474Z,7.10
2019-01-16T10:50:37.331Z,7.10
2019-01-16T10:52:19.986Z,7.10
2019-01-16T10:53:49.685Z,7.10
2019-01-16T10:55:12.053Z,7.10
2019-01-16T10:56:51.374Z,7.20
2019-01-16T10:58:18.823Z,7.10
2019-01-16T10:59:51.909Z,7.10
2019-01-16T11:01:19.171Z,7.10
2019-01-16T11:02:49.515Z,7.20
2019-01-16T11:04:20.041Z,7.20
2019-01-16T11:05:43.113Z,7.20
2019-01-16T11:07:07.318Z,7.10
2019-01-16T11:08:34.594Z,7.10
2019-01-16T11:09:57.708Z,7.10
2019-01-16T11:11:31.134Z,7.10
2019-01-16T11:12:53.449Z,7.10
2019-01-16T11:14:16.656Z,7.20
2019-01-16T11:15:34.630Z,7.20
2019-01-16T11:17:07.860Z,7.20
2019-01-16T11:18:44.354Z,7.20
2019-01-16T11:20:26.929Z,7.20
2019-01-16T11:23:28.043Z,7.10
2019-01-16T11:24:50.982Z,7.20
2019-01-16T11:26:27.130Z,7.20
2019-01-16T11:27:48.113Z,7.20
2019-01-16T11:29:11.105Z,7.20
2019-01-16T11:30:34.099Z,7.20
2019-01-16T11:32:07.265Z,7.10
2019-01-16T11:33:38.546Z,7.20
2019-01-16T11:35:05.771Z,7.20
2019-01-16T11:36:25.845Z,7.20
2019-01-16T11:37:55.807Z,7.10
2019-01-16T11:39:19.210Z,7.20
2019-01-16T11:40:53.743Z,7.20
2019-01-16T11:42:30.266Z,7.20
2019-01-16T11:44:12.803Z,7.10
2019-01-16T11:45:38.326Z,7.10
2019-01-16T11:47:03.292Z,7.20
2019-01-16T11:48:36.489Z,7.10
2019-01-16T11:49:59.554Z,7.10
2019-01-16T11:51:18.831Z,7.10
2019-01-16T11:52:44.813Z,7.10
2019-01-16T11:54:08.159Z,7.10
2019-01-16T11:55:41.337Z,7.10
2019-01-16T11:57:06.223Z,7.10
2019-01-16T11:58:36.305Z,7.10
2019-01-16T12:00:09.768Z,7.10
2019-01-16T12:01:34.058Z,7.10
2019-01-16T12:03:07.218Z,7.10
2019-01-16T12:04:35.172Z,7.10
2019-01-16T12:05:56.966Z,7.10
2019-01-16T12:07:24.222Z,7.00
2019-01-16T12:08:45.242Z,7.00
2019-01-16T12:10:15.592Z,7.00
2019-01-16T12:11:39.767Z,7.00
2019-01-16T12:13:02.703Z,7.00
2019-01-16T12:14:19.649Z,7.00
2019-01-16T12:15:50.739Z,7.00
2019-01-16T12:17:26.920Z,6.90
2019-01-16T12:19:00.407Z,6.90
2019-01-16T12:20:37.314Z,7.00
2019-01-16T12:22:07.773Z,7.00
2019-01-16T12:23:50.199Z,6.90
2019-01-16T12:25:26.335Z,6.90
2019-01-16T12:27:02.622Z,6.90
2019-01-16T12:28:27.170Z,6.90
2019-01-16T12:30:00.479Z,6.90
2019-01-16T12:31:43.160Z,6.90
2019-01-16T12:32:54.510Z,6.90
2019-01-16T12:34:13.596Z,6.90
2019-01-16T12:35:37.729Z,6.90
2019-01-16T12:37:17.239Z,6.80
2019-01-16T12:38:41.710Z,6.90
2019-01-16T12:40:08.467Z,6.80
2019-01-16T12:41:38.679Z,6.80
2019-01-16T12:43:03.024Z,6.80
2019-01-16T12:44:25.794Z,6.80
2019-01-16T12:45:47.522Z,6.80
2019-01-16T12:47:10.377Z,6.80
2019-01-16T12:48:33.111Z,6.80
2019-01-16T12:50:00.087Z,6.80
2019-01-16T12:51:22.042Z,6.80
2019-01-16T12:52:35.347Z,6.80
2019-01-16T12:53:55.531Z,6.80
2019-01-16T12:55:30.028Z,6.80
2019-01-16T12:57:03.774Z,6.80
2019-01-16T12:58:40.113Z,6.80
2019-01-16T13:00:05.404Z,6.80
2019-01-16T13:01:28.531Z,6.70
2019-01-16T13:02:45.027Z,6.70
2019-01-16T13:04:12.268Z,6.70
2019-01-16T13:05:39.685Z,6.80
2019-01-16T13:07:15.572Z,6.80
2019-01-16T13:08:35.224Z,6.80
2019-01-16T13:09:58.342Z,6.70
2019-01-16T13:11:28.854Z,6.80
2019-01-16T13:13:05.083Z,6.80
2019-01-16T13:14:38.096Z,6.80
2019-01-16T13:15:52.097Z,6.80
2019-01-16T13:17:14.275Z,6.90
2019-01-16T13:18:38.406Z,6.80
2019-01-16T13:19:56.585Z,6.80
2019-01-16T13:21:40.094Z,6.80
2019-01-16T13:22:58.646Z,6.90
2019-01-16T13:24:12.437Z,6.80
2019-01-16T13:25:41.134Z,6.80
2019-01-16T13:27:06.282Z,6.80
2019-01-16T13:28:43.533Z,6.80
2019-01-16T13:30:10.561Z,6.80
2019-01-16T13:31:37.750Z,6.80
2019-01-16T13:33:04.553Z,6.90
2019-01-16T13:34:28.842Z,6.90
2019-01-16T13:35:55.830Z,6.90
2019-01-16T13:37:30.318Z,6.90
2019-01-16T13:38:53.289Z,6.90
2019-01-16T13:40:26.413Z,6.90
2019-01-16T13:41:42.622Z,6.90
2019-01-16T13:42:58.698Z,6.90
2019-01-16T13:44:14.185Z,6.90
2019-01-16T13:45:41.335Z,6.90
2019-01-16T13:47:11.557Z,6.90
2019-01-16T13:48:30.566Z,6.90
2019-01-16T13:49:44.266Z,6.90
2019-01-16T13:51:08.283Z,6.90
2019-01-16T13:52:31.328Z,6.90
2019-01-16T13:54:10.639Z,6.90
2019-01-16T13:55:33.306Z,6.90
2019-01-16T13:57:00.503Z,6.90
2019-01-16T13:58:30.952Z,6.80
2019-01-16T13:59:54.152Z,6.90
2019-01-16T14:01:16.857Z,6.90
2019-01-16T14:02:38.765Z,6.90
2019-01-16T14:04:01.776Z,6.90
2019-01-16T14:05:28.944Z,6.90
2019-01-16T14:06:57.014Z,6.90
2019-01-16T14:08:19.856Z,6.90
2019-01-16T14:09:44.040Z,6.90
2019-01-16T14:11:18.251Z,6.90
2019-01-16T14:12:42.912Z,6.90
2019-01-16T14:14:12.957Z,6.90
2019-01-16T14:15:49.596Z,6.80
2019-01-16T14:17:16.374Z,6.80
2019-01-16T14:18:27.683Z,6.80
2019-01-16T14:19:50.742Z,6.80
2019-01-16T14:21:25.324Z,6.80
2019-01-16T14:22:58.530Z,6.80
2019-01-16T14:24:25.569Z,6.80
2019-01-16T14:25:50.255Z,6.80
2019-01-16T14:27:18.739Z,6.80
2019-01-16T14:28:42.904Z,6.80
2019-01-16T14:30:07.106Z,6.80
2019-01-16T14:31:44.554Z,6.80
2019-01-16T14:33:00.953Z,6.80
2019-01-16T14:34:26.033Z,6.80
2019-01-16T14:35:55.465Z,6.80
2019-01-16T14:37:34.742Z,6.80
2019-01-16T14:39:01.952Z,6.80
2019-01-16T14:40:34.723Z,6.80
2019-01-16T14:41:57.809Z,6.80
2019-01-16T14:43:20.559Z,6.70
2019-01-16T14:44:50.745Z,6.70
2019-01-16T14:46:11.798Z,6.70
2019-01-16T14:47:34.793Z,6.70
2019-01-16T14:48:59.112Z,6.70
2019-01-16T14:50:25.323Z,6.70
2019-01-16T14:51:52.673Z,6.70
2019-01-16T14:53:18.306Z,6.70
2019-01-16T14:55:06.130Z,6.70
2019-01-16T14:56:39.276Z,6.70
2019-01-16T14:58:03.438Z,6.70
2019-01-16T14:59:32.792Z,6.70
2019-01-16T15:01:15.195Z,6.70
2019-01-16T15:02:57.971Z,6.70
2019-01-16T15:04:29.036Z,6.60
2019-01-16T15:05:50.648Z,6.60
2019-01-16T15:07:07.811Z,6.60
2019-01-16T15:08:32.748Z,6.60
2019-01-16T15:10:15.347Z,6.60
2019-01-16T15:11:45.468Z,6.60
2019-01-16T15:13:06.438Z,6.60
2019-01-16T15:14:40.439Z,6.60
2019-01-16T15:16:03.291Z,6.60
2019-01-16T15:17:27.449Z,6.60
2019-01-16T15:18:50.852Z,6.60
2019-01-16T15:20:10.574Z,6.60
2019-01-16T15:21:43.780Z,6.60
2019-01-16T15:23:13.826Z,6.60
2019-01-16T15:24:36.736Z,6.60
2019-01-16T15:25:57.938Z,6.60
2019-01-16T15:27:37.620Z,6.60
2019-01-16T15:28:51.809Z,6.60
2019-01-16T15:30:22.155Z,6.50
2019-01-16T15:31:50.735Z,6.60
2019-01-16T15:33:13.979Z,6.60
2019-01-16T15:34:31.291Z,6.60
2019-01-16T15:35:48.992Z,6.50
2019-01-16T15:37:16.263Z,6.60
2019-01-16T15:38:43.640Z,6.50
2019-01-16T15:40:06.940Z,6.50
2019-01-16T15:41:29.824Z,6.50
2019-01-16T15:43:03.078Z,6.50
2019-01-16T15:44:45.387Z,6.50
2019-01-16T15:46:12.659Z,6.50
2019-01-16T15:47:32.562Z,6.50
2019-01-16T15:48:55.722Z,6.50
2019-01-16T15:50:22.971Z,6.50
2019-01-16T15:51:56.343Z,6.50
2019-01-16T15:53:23.758Z,6.50
2019-01-16T15:54:39.669Z,6.40
2019-01-16T15:56:13.112Z,6.50
2019-01-16T15:57:37.313Z,6.40
2019-01-16T15:59:00.042Z,6.40
2019-01-16T16:00:23.216Z,6.40
2019-01-16T16:01:46.425Z,6.40
2019-01-16T16:03:24.295Z,6.40
2019-01-16T16:04:57.429Z,6.40
2019-01-16T16:06:27.531Z,6.40
2019-01-16T16:07:50.476Z,6.40
2019-01-16T16:09:11.525Z,6.30
2019-01-16T16:10:41.982Z,6.30
2019-01-16T16:12:06.183Z,6.30
2019-01-16T16:13:30.432Z,6.40
2019-01-16T16:14:54.784Z,6.30
2019-01-16T16:16:19.030Z,6.30
2019-01-16T16:17:43.362Z,6.40
2019-01-16T16:19:06.387Z,6.30
2019-01-16T16:20:30.754Z,6.30
2019-01-16T16:21:45.911Z,6.40
2019-01-16T16:23:04.038Z,6.30
2019-01-16T16:24:37.552Z,6.30
2019-01-16T16:26:01.976Z,6.30
2019-01-16T16:27:26.199Z,6.30
2019-01-16T16:28:56.817Z,6.30
2019-01-16T16:30:24.058Z,6.40
2019-01-16T16:31:49.182Z,6.30
2019-01-16T16:33:19.273Z,6.40
2019-01-16T16:34:46.528Z,6.30
2019-01-16T16:36:26.266Z,6.30
2019-01-16T16:37:49.486Z,6.30
2019-01-16T16:39:10.185Z,6.30
2019-01-16T16:40:37.588Z,6.30
2019-01-16T16:42:01.366Z,6.30
2019-01-16T16:43:23.323Z,6.30
2019-01-16T16:44:39.307Z,6.40
2019-01-16T16:46:13.505Z,6.30
2019-01-16T16:47:40.550Z,6.30
2019-01-16T16:48:55.823Z,6.30
2019-01-16T16:50:14.143Z,6.40
2019-01-16T16:51:27.394Z,6.40
2019-01-16T16:52:58.775Z,6.40
2019-01-16T16:54:32.534Z,6.40
2019-01-16T16:55:56.820Z,6.40
2019-01-16T16:57:30.308Z,6.40
2019-01-16T16:58:54.612Z,6.40
2019-01-16T17:00:17.284Z,6.40
2019-01-16T17:01:34.867Z,6.50
2019-01-16T17:02:48.916Z,6.40
2019-01-16T17:04:22.414Z,6.40
2019-01-16T17:05:44.366Z,6.40
2019-01-16T17:07:11.658Z,6.40
2019-01-16T17:08:38.664Z,6.40
2019-01-16T17:09:57.677Z,6.40
2019-01-16T17:11:20.448Z,6.40
2019-01-16T17:12:40.848Z,6.30
2019-01-16T17:14:03.933Z,6.30
2019-01-16T17:15:28.270Z,6.40
2019-01-16T17:16:51.275Z,6.50
2019-01-16T17:18:27.497Z,6.40
2019-01-16T17:19:50.630Z,6.40
2019-01-16T17:21:27.013Z,6.30
2019-01-16T17:22:50.060Z,6.30
2019-01-16T17:24:13.240Z,6.30
2019-01-16T17:25:36.436Z,6.30
2019-01-16T17:27:04.189Z,6.30
2019-01-16T17:28:37.888Z,6.30
2019-01-16T17:30:02.347Z,6.30
2019-01-16T17:31:39.155Z,6.20
2019-01-16T17:33:03.371Z,6.30
2019-01-16T17:34:19.944Z,6.30
2019-01-16T17:35:47.243Z,6.20
2019-01-16T17:37:10.155Z,6.20
2019-01-16T17:38:34.056Z,6.30
2019-01-16T17:40:03.527Z,6.20
2019-01-16T17:41:27.862Z,6.20
2019-01-16T17:42:51.128Z,6.20
2019-01-16T17:44:14.150Z,6.30
2019-01-16T17:45:41.162Z,6.30
2019-01-16T17:47:04.360Z,6.30
2019-01-16T17:48:46.946Z,6.20
2019-01-16T17:50:10.498Z,6.30
2019-01-16T17:51:45.538Z,6.20
2019-01-16T17:53:08.726Z,6.30
2019-01-16T17:54:48.256Z,6.30
2019-01-16T17:56:08.242Z,6.20
2019-01-16T17:57:24.984Z,6.20
2019-01-16T17:58:43.456Z,6.30
2019-01-16T18:00:19.878Z,6.30
2019-01-16T18:01:47.115Z,6.30
2019-01-16T18:03:29.552Z,6.30
2019-01-16T18:04:46.341Z,6.30
2019-01-16T18:06:13.618Z,6.30
2019-01-16T18:07:40.691Z,6.20
2019-01-16T18:09:09.300Z,6.30
2019-01-16T18:10:34.801Z,6.20
2019-01-16T18:11:52.873Z,6.20
2019-01-16T18:13:16.035Z,6.20
2019-01-16T18:14:34.127Z,6.20
2019-01-16T18:15:58.369Z,6.20
2019-01-16T18:17:32.910Z,6.20
2019-01-16T18:18:59.820Z,6.20
2019-01-16T18:20:33.104Z,6.20
2019-01-16T18:21:57.077Z,6.20
2019-01-16T18:23:15.747Z,6.20
2019-01-16T18:24:43.024Z,6.30
2019-01-16T18:26:08.354Z,6.20
2019-01-16T18:27:41.942Z,6.20
2019-01-16T18:29:07.218Z,6.20
2019-01-16T18:30:43.831Z,6.20
2019-01-16T18:32:19.429Z,6.20
2019-01-16T18:33:55.912Z,6.20
2019-01-16T18:35:20.138Z,6.20
2019-01-16T18:36:51.325Z,6.30
2019-01-16T18:38:11.768Z,6.30
2019-01-16T18:39:38.855Z,6.20
2019-01-16T18:40:58.137Z,6.30
2019-01-16T18:42:14.756Z,6.30
2019-01-16T18:43:34.585Z,6.30
2019-01-16T18:44:57.323Z,6.30
2019-01-16T18:46:16.085Z,6.20
2019-01-16T18:47:46.327Z,6.30
2019-01-16T18:49:04.462Z,6.30
2019-01-16T18:50:29.476Z,6.20
2019-01-16T18:51:53.023Z,6.30
2019-01-16T18:53:13.017Z,6.30
2019-01-16T18:54:36.169Z,6.30
2019-01-16T18:55:59.190Z,6.20
2019-01-16T18:57:23.392Z,6.20
2019-01-16T18:58:49.158Z,6.30
2019-01-16T19:00:17.557Z,6.20
2019-01-16T19:01:36.021Z,6.20
2019-01-16T19:03:03.685Z,6.20
2019-01-16T19:04:26.392Z,6.20
2019-01-16T19:05:40.700Z,6.20
2019-01-16T19:07:03.590Z,6.30
2019-01-16T19:08:26.670Z,6.20